sensor_id;sensor_type;location;lat;lon;timestamp;temperature;humidity
63976;DHT22;50167;47.958;21.780;2023-02-13T00:01:22;4.94;45.97
63976;DHT22;50167;47.958;21.780;2023-02-13T00:03:49;5.05;48.63
63976;DHT22;50167;47.958;21.780;2023-02-13T00:06:15;5.11;45.71
63976;DHT22;50167;47.958;21.780;2023-02-13T00:08:41;5.07;48.26
63976;DHT22;50167;47.958;21.780;2023-02-13T00:11:08;5.08;45.25
63976;DHT22;50167;47.958;21.780;2023-02-13T00:13:35;5.10;48.01
63976;DHT22;50167;47.958;21.780;2023-02-13T00:16:03;5.10;45.44
63976;DHT22;50167;47.958;21.780;2023-02-13T00:18:36;5.15;48.32
63976;DHT22;50167;47.958;21.780;2023-02-13T00:21:10;5.01;45.21
63976;DHT22;50167;47.958;21.780;2023-02-13T00:23:38;5.11;47.95
63976;DHT22;50167;47.958;21.780;2023-02-13T00:26:08;5.04;45.26
63976;DHT22;50167;47.958;21.780;2023-02-13T00:28:35;5.08;47.91
63976;DHT22;50167;47.958;21.780;2023-02-13T00:31:12;5.07;46.08
63976;DHT22;50167;47.958;21.780;2023-02-13T00:33:38;5.24;47.87
63976;DHT22;50167;47.958;21.780;2023-02-13T00:36:09;4.94;45.87
63976;DHT22;50167;47.958;21.780;2023-02-13T00:38:37;5.05;48.65
63976;DHT22;50167;47.958;21.780;2023-02-13T00:41:04;5.10;45.98
63976;DHT22;50167;47.958;21.780;2023-02-13T00:43:31;5.19;48.29
63976;DHT22;50167;47.958;21.780;2023-02-13T00:45:58;4.98;45.50
63976;DHT22;50167;47.958;21.780;2023-02-13T00:48:25;5.11;47.95
63976;DHT22;50167;47.958;21.780;2023-02-13T00:50:52;5.04;45.09
63976;DHT22;50167;47.958;21.780;2023-02-13T00:53:20;5.14;47.50
63976;DHT22;50167;47.958;21.780;2023-02-13T00:55:47;5.05;45.37
63976;DHT22;50167;47.958;21.780;2023-02-13T00:58:13;5.14;47.16
63976;DHT22;50167;47.958;21.780;2023-02-13T01:00:40;5.10;46.16
63976;DHT22;50167;47.958;21.780;2023-02-13T01:03:06;5.08;47.59
63976;DHT22;50167;47.958;21.780;2023-02-13T01:05:32;5.24;46.71
63976;DHT22;50167;47.958;21.780;2023-02-13T01:07:59;5.21;47.30
63976;DHT22;50167;47.958;21.780;2023-02-13T01:10:25;4.95;46.27
63976;DHT22;50167;47.958;21.780;2023-02-13T01:12:52;5.10;47.16
63976;DHT22;50167;47.958;21.780;2023-02-13T01:15:18;5.14;45.56
63976;DHT22;50167;47.958;21.780;2023-02-13T01:17:45;5.15;47.27
63976;DHT22;50167;47.958;21.780;2023-02-13T01:20:12;5.00;45.39
63976;DHT22;50167;47.958;21.780;2023-02-13T01:22:39;5.05;47.55
63976;DHT22;50167;47.958;21.780;2023-02-13T01:25:06;5.28;46.97
63976;DHT22;50167;47.958;21.780;2023-02-13T01:27:32;4.84;46.11
63976;DHT22;50167;47.958;21.780;2023-02-13T01:29:59;4.97;46.92
63976;DHT22;50167;47.958;21.780;2023-02-13T01:32:25;5.24;46.11
63976;DHT22;50167;47.958;21.780;2023-02-13T01:34:51;4.84;45.30
63976;DHT22;50167;47.958;21.780;2023-02-13T01:37:17;4.88;46.76
63976;DHT22;50167;47.958;21.780;2023-02-13T01:39:44;5.04;46.39
63976;DHT22;50167;47.958;21.780;2023-02-13T01:42:14;5.12;46.21
63976;DHT22;50167;47.958;21.780;2023-02-13T01:44:56;5.21;45.53
63976;DHT22;50167;47.958;21.780;2023-02-13T01:47:38;4.90;45.63
63976;DHT22;50167;47.958;21.780;2023-02-13T01:50:22;5.01;46.30
63976;DHT22;50167;47.958;21.780;2023-02-13T01:52:54;5.12;45.52
63976;DHT22;50167;47.958;21.780;2023-02-13T01:55:20;5.25;45.46
63976;DHT22;50167;47.958;21.780;2023-02-13T01:57:52;4.87;45.73
63976;DHT22;50167;47.958;21.780;2023-02-13T02:00:19;4.86;46.73
63976;DHT22;50167;47.958;21.780;2023-02-13T02:02:57;4.95;47.07
63976;DHT22;50167;47.958;21.780;2023-02-13T02:05:26;5.15;46.63
63976;DHT22;50167;47.958;21.780;2023-02-13T02:07:54;5.12;45.51
63976;DHT22;50167;47.958;21.780;2023-02-13T02:10:21;5.14;45.85
63976;DHT22;50167;47.958;21.780;2023-02-13T02:15:31;5.26;46.14
63976;DHT22;50167;47.958;21.780;2023-02-13T02:17:58;4.90;45.31
63976;DHT22;50167;47.958;21.780;2023-02-13T02:30:04;4.86;45.52
63976;DHT22;50167;47.958;21.780;2023-02-13T02:38:11;5.24;45.00
63976;DHT22;50167;47.958;21.780;2023-02-13T02:41:20;4.80;45.04
63976;DHT22;50167;47.958;21.780;2023-02-13T02:44:26;4.77;46.08
63976;DHT22;50167;47.958;21.780;2023-02-13T02:47:17;4.87;45.84
63976;DHT22;50167;47.958;21.780;2023-02-13T02:50:38;4.91;45.78
63976;DHT22;50167;47.958;21.780;2023-02-13T02:53:43;4.87;45.74
63976;DHT22;50167;47.958;21.780;2023-02-13T02:56:35;5.00;45.66
63976;DHT22;50167;47.958;21.780;2023-02-13T02:59:04;5.00;45.59
63976;DHT22;50167;47.958;21.780;2023-02-13T03:01:50;5.07;45.37
63976;DHT22;50167;47.958;21.780;2023-02-13T03:04:43;5.10;44.87
63976;DHT22;50167;47.958;21.780;2023-02-13T03:07:28;5.01;45.04
63976;DHT22;50167;47.958;21.780;2023-02-13T03:10:00;4.93;45.28
63976;DHT22;50167;47.958;21.780;2023-02-13T03:15:58;4.93;45.71
63976;DHT22;50167;47.958;21.780;2023-02-13T03:18:49;5.04;45.45
63976;DHT22;50167;47.958;21.780;2023-02-13T03:36:49;4.88;44.75
63976;DHT22;50167;47.958;21.780;2023-02-13T03:42:54;4.70;45.38
63976;DHT22;50167;47.958;21.780;2023-02-13T03:45:30;4.72;45.31
63976;DHT22;50167;47.958;21.780;2023-02-13T03:48:21;4.73;45.09
63976;DHT22;50167;47.958;21.780;2023-02-13T03:51:07;4.63;45.80
63976;DHT22;50167;47.958;21.780;2023-02-13T03:53:37;4.76;45.16
63976;DHT22;50167;47.958;21.780;2023-02-13T03:56:06;4.76;45.12
63976;DHT22;50167;47.958;21.780;2023-02-13T03:58:54;4.74;44.89
63976;DHT22;50167;47.958;21.780;2023-02-13T04:02:05;4.73;44.99
63976;DHT22;50167;47.958;21.780;2023-02-13T04:04:39;4.73;45.17
63976;DHT22;50167;47.958;21.780;2023-02-13T04:07:09;4.97;45.27
63976;DHT22;50167;47.958;21.780;2023-02-13T04:09:40;5.21;43.66
63976;DHT22;50167;47.958;21.780;2023-02-13T04:12:39;4.98;44.57
63976;DHT22;50167;47.958;21.780;2023-02-13T04:15:17;5.28;44.45
63976;DHT22;50167;47.958;21.780;2023-02-13T04:17:51;4.84;43.62
63976;DHT22;50167;47.958;21.780;2023-02-13T04:20:17;5.00;44.69
63976;DHT22;50167;47.958;21.780;2023-02-13T04:22:46;5.25;44.11
63976;DHT22;50167;47.958;21.780;2023-02-13T04:25:17;4.83;43.25
63976;DHT22;50167;47.958;21.780;2023-02-13T04:27:43;4.93;44.63
63976;DHT22;50167;47.958;21.780;2023-02-13T04:30:11;5.14;44.11
63976;DHT22;50167;47.958;21.780;2023-02-13T04:32:37;5.08;43.17
63976;DHT22;50167;47.958;21.780;2023-02-13T04:35:04;5.22;43.60
63976;DHT22;50167;47.958;21.780;2023-02-13T04:37:30;4.84;42.70
63976;DHT22;50167;47.958;21.780;2023-02-13T04:39:56;4.95;44.09
63976;DHT22;50167;47.958;21.780;2023-02-13T04:42:22;5.11;43.70
63976;DHT22;50167;47.958;21.780;2023-02-13T04:44:48;5.24;43.68
63976;DHT22;50167;47.958;21.780;2023-02-13T04:47:15;4.88;43.05
63976;DHT22;50167;47.958;21.780;2023-02-13T04:49:41;5.10;44.42
63976;DHT22;50167;47.958;21.780;2023-02-13T04:52:07;5.03;42.42
63976;DHT22;50167;47.958;21.780;2023-02-13T04:54:33;5.05;43.93
63976;DHT22;50167;47.958;21.780;2023-02-13T04:56:59;5.26;43.88
63976;DHT22;50167;47.958;21.780;2023-02-13T04:59:25;4.87;43.01
63976;DHT22;50167;47.958;21.780;2023-02-13T05:01:51;5.07;44.73
63976;DHT22;50167;47.958;21.780;2023-02-13T05:04:19;5.12;42.81
63976;DHT22;50167;47.958;21.780;2023-02-13T05:06:45;5.18;44.89
63976;DHT22;50167;47.958;21.780;2023-02-13T05:09:11;4.97;43.07
63976;DHT22;50167;47.958;21.780;2023-02-13T05:11:38;5.15;45.43
63976;DHT22;50167;47.958;21.780;2023-02-13T05:14:04;5.01;43.54
63976;DHT22;50167;47.958;21.780;2023-02-13T05:16:30;5.22;45.71
63976;DHT22;50167;47.958;21.780;2023-02-13T05:18:57;4.97;43.70
63976;DHT22;50167;47.958;21.780;2023-02-13T05:21:23;5.14;45.56
63976;DHT22;50167;47.958;21.780;2023-02-13T05:24:08;4.95;44.56
63976;DHT22;50167;47.958;21.780;2023-02-13T05:26:34;5.05;46.07
63976;DHT22;50167;47.958;21.780;2023-02-13T05:29:00;5.29;45.53
63976;DHT22;50167;47.958;21.780;2023-02-13T05:31:47;4.83;46.62
63976;DHT22;50167;47.958;21.780;2023-02-13T05:34:14;5.14;47.15
63976;DHT22;50167;47.958;21.780;2023-02-13T05:36:41;5.03;45.27
63976;DHT22;50167;47.958;21.780;2023-02-13T05:39:07;5.05;47.22
63976;DHT22;50167;47.958;21.780;2023-02-13T05:41:33;5.24;46.18
63976;DHT22;50167;47.958;21.780;2023-02-13T05:44:00;4.95;47.68
63976;DHT22;50167;47.958;21.780;2023-02-13T05:46:26;5.29;47.52
63976;DHT22;50167;47.958;21.780;2023-02-13T05:48:52;4.94;46.63
63976;DHT22;50167;47.958;21.780;2023-02-13T05:51:19;5.33;48.69
63976;DHT22;50167;47.958;21.780;2023-02-13T05:53:45;4.98;45.37
63976;DHT22;50167;47.958;21.780;2023-02-13T05:56:11;5.16;49.04
63976;DHT22;50167;47.958;21.780;2023-02-13T05:58:38;5.01;46.00
63976;DHT22;50167;47.958;21.780;2023-02-13T06:01:04;5.11;49.61
63976;DHT22;50167;47.958;21.780;2023-02-13T06:03:32;5.10;47.39
63976;DHT22;50167;47.958;21.780;2023-02-13T06:05:58;5.16;49.88
63976;DHT22;50167;47.958;21.780;2023-02-13T06:08:25;5.07;47.86
63976;DHT22;50167;47.958;21.780;2023-02-13T06:10:51;5.29;50.55
63976;DHT22;50167;47.958;21.780;2023-02-13T06:13:18;4.93;47.93
63976;DHT22;50167;47.958;21.780;2023-02-13T06:15:44;5.15;51.21
63976;DHT22;50167;47.958;21.780;2023-02-13T06:18:11;5.12;47.88
63976;DHT22;50167;47.958;21.780;2023-02-13T06:20:37;5.16;50.88
63976;DHT22;50167;47.958;21.780;2023-02-13T06:23:04;5.11;47.88
63976;DHT22;50167;47.958;21.780;2023-02-13T06:25:30;5.11;51.16
63976;DHT22;50167;47.958;21.780;2023-02-13T06:27:56;5.15;48.69
63976;DHT22;50167;47.958;21.780;2023-02-13T06:30:22;5.18;51.60
63976;DHT22;50167;47.958;21.780;2023-02-13T06:32:49;5.15;48.47
63976;DHT22;50167;47.958;21.780;2023-02-13T06:35:15;5.22;51.87
63976;DHT22;50167;47.958;21.780;2023-02-13T06:37:42;5.11;48.79
63976;DHT22;50167;47.958;21.780;2023-02-13T06:40:10;5.19;52.56
63976;DHT22;50167;47.958;21.780;2023-02-13T06:42:36;5.15;49.01
63976;DHT22;50167;47.958;21.780;2023-02-13T06:45:06;5.32;53.25
63976;DHT22;50167;47.958;21.780;2023-02-13T06:47:33;5.19;48.78
63976;DHT22;50167;47.958;21.780;2023-02-13T06:49:59;5.35;53.54
63976;DHT22;50167;47.958;21.780;2023-02-13T06:52:32;5.24;48.96
63976;DHT22;50167;47.958;21.780;2023-02-13T06:54:58;5.28;54.04
63976;DHT22;50167;47.958;21.780;2023-02-13T06:57:24;5.32;49.79
63976;DHT22;50167;47.958;21.780;2023-02-13T07:00:03;5.21;54.38
63976;DHT22;50167;47.958;21.780;2023-02-13T07:02:44;5.25;50.07
63976;DHT22;50167;47.958;21.780;2023-02-13T07:05:11;5.38;54.50
63976;DHT22;50167;47.958;21.780;2023-02-13T07:07:41;5.32;50.47
63976;DHT22;50167;47.958;21.780;2023-02-13T07:10:12;5.28;54.92
63976;DHT22;50167;47.958;21.780;2023-02-13T07:12:39;5.41;50.80
63976;DHT22;50167;47.958;21.780;2023-02-13T07:15:06;5.14;54.36
63976;DHT22;50167;47.958;21.780;2023-02-13T07:17:32;5.42;51.45
63976;DHT22;50167;47.958;21.780;2023-02-13T07:19:59;5.14;53.69
63976;DHT22;50167;47.958;21.780;2023-02-13T07:22:31;5.47;51.15
63976;DHT22;50167;47.958;21.780;2023-02-13T07:24:58;5.08;53.69
63976;DHT22;50167;47.958;21.780;2023-02-13T07:27:25;5.46;51.99
63976;DHT22;50167;47.958;21.780;2023-02-13T07:29:56;5.15;53.61
63976;DHT22;50167;47.958;21.780;2023-02-13T07:32:24;5.43;51.72
63976;DHT22;50167;47.958;21.780;2023-02-13T07:34:50;5.15;54.27
63976;DHT22;50167;47.958;21.780;2023-02-13T07:37:16;5.53;51.93
63976;DHT22;50167;47.958;21.780;2023-02-13T07:39:42;5.12;53.65
63976;DHT22;50167;47.958;21.780;2023-02-13T07:42:09;5.58;53.03
63976;DHT22;50167;47.958;21.780;2023-02-13T07:44:35;5.10;53.24
63976;DHT22;50167;47.958;21.780;2023-02-13T07:47:01;5.60;53.97
63976;DHT22;50167;47.958;21.780;2023-02-13T07:49:27;5.12;52.85
63976;DHT22;50167;47.958;21.780;2023-02-13T07:51:56;5.62;54.98
63976;DHT22;50167;47.958;21.780;2023-02-13T07:54:25;5.21;52.74
63976;DHT22;50167;47.958;21.780;2023-02-13T07:56:52;5.65;55.37
63976;DHT22;50167;47.958;21.780;2023-02-13T07:59:18;5.32;52.56
63976;DHT22;50167;47.958;21.780;2023-02-13T08:01:50;5.46;56.46
63976;DHT22;50167;47.958;21.780;2023-02-13T08:04:16;5.45;52.74
63976;DHT22;50167;47.958;21.780;2023-02-13T08:06:42;5.24;55.81
63976;DHT22;50167;47.958;21.780;2023-02-13T08:09:19;5.69;53.39
63976;DHT22;50167;47.958;21.780;2023-02-13T08:12:06;5.14;52.72
63976;DHT22;50167;47.958;21.780;2023-02-13T08:14:33;5.62;54.35
63976;DHT22;50167;47.958;21.780;2023-02-13T08:17:00;5.22;53.35
63976;DHT22;50167;47.958;21.780;2023-02-13T08:19:27;5.59;56.89
63976;DHT22;50167;47.958;21.780;2023-02-13T08:21:53;5.41;53.76
63976;DHT22;50167;47.958;21.780;2023-02-13T08:24:20;5.42;58.25
63976;DHT22;50167;47.958;21.780;2023-02-13T08:26:46;5.69;54.30
63976;DHT22;50167;47.958;21.780;2023-02-13T08:29:13;5.19;54.26
63976;DHT22;50167;47.958;21.780;2023-02-13T08:31:39;5.66;56.95
63976;DHT22;50167;47.958;21.780;2023-02-13T08:34:05;5.36;54.80
63976;DHT22;50167;47.958;21.780;2023-02-13T08:36:31;5.43;58.58
63976;DHT22;50167;47.958;21.780;2023-02-13T08:38:58;5.69;55.20
63976;DHT22;50167;47.958;21.780;2023-02-13T08:41:24;5.26;54.30
63976;DHT22;50167;47.958;21.780;2023-02-13T08:43:52;5.62;57.74
63976;DHT22;50167;47.958;21.780;2023-02-13T08:46:19;5.50;55.91
63976;DHT22;50167;47.958;21.780;2023-02-13T08:48:45;5.21;56.63
63976;DHT22;50167;47.958;21.780;2023-02-13T08:51:13;5.62;56.73
63976;DHT22;50167;47.958;21.780;2023-02-13T08:53:39;5.29;56.77
63976;DHT22;50167;47.958;21.780;2023-02-13T08:56:07;5.60;59.49
63976;DHT22;50167;47.958;21.780;2023-02-13T08:58:33;5.70;56.50
63976;DHT22;50167;47.958;21.780;2023-02-13T09:01:09;5.36;57.93
63976;DHT22;50167;47.958;21.780;2023-02-13T09:03:33;5.42;59.26
63976;DHT22;50167;47.958;21.780;2023-02-13T09:06:01;5.54;59.27
63976;DHT22;50167;47.958;21.780;2023-02-13T09:08:27;5.22;59.53
63976;DHT22;50167;47.958;21.780;2023-02-13T09:11:02;5.62;59.81
63976;DHT22;50167;47.958;21.780;2023-02-13T09:13:30;5.49;59.06
63976;DHT22;50167;47.958;21.780;2023-02-13T09:16:01;5.24;60.96
63976;DHT22;50167;47.958;21.780;2023-02-13T09:18:28;5.46;59.11
63976;DHT22;50167;47.958;21.780;2023-02-13T09:21:00;5.32;59.98
63976;DHT22;50167;47.958;21.780;2023-02-13T09:23:36;5.46;61.44
63976;DHT22;50167;47.958;21.780;2023-02-13T09:26:06;5.56;58.92
63976;DHT22;50167;47.958;21.780;2023-02-13T09:28:34;5.41;61.02
63976;DHT22;50167;47.958;21.780;2023-02-13T09:31:20;5.54;62.26
63976;DHT22;50167;47.958;21.780;2023-02-13T09:33:49;7.77;57.91
63976;DHT22;50167;47.958;21.780;2023-02-13T09:36:19;9.07;52.32
63976;DHT22;50167;47.958;21.780;2023-02-13T09:38:47;9.48;52.81
63976;DHT22;50167;47.958;21.780;2023-02-13T09:41:20;10.10;47.87
63976;DHT22;50167;47.958;21.780;2023-02-13T09:44:00;10.96;49.88
63976;DHT22;50167;47.958;21.780;2023-02-13T09:46:39;11.76;43.76
63976;DHT22;50167;47.958;21.780;2023-02-13T09:49:18;12.27;42.13
63976;DHT22;50167;47.958;21.780;2023-02-13T09:51:49;12.92;44.97
63976;DHT22;50167;47.958;21.780;2023-02-13T09:54:16;13.43;40.16
63976;DHT22;50167;47.958;21.780;2023-02-13T10:00:50;13.77;41.81
63976;DHT22;50167;47.958;21.780;2023-02-13T10:06:35;14.23;39.93
63976;DHT22;50167;47.958;21.780;2023-02-13T10:09:23;14.34;37.72
63976;DHT22;50167;47.958;21.780;2023-02-13T10:17:23;15.29;35.54
63976;DHT22;50167;47.958;21.780;2023-02-13T10:20:01;15.33;34.28
63976;DHT22;50167;47.958;21.780;2023-02-13T10:22:33;15.60;35.56
63976;DHT22;50167;47.958;21.780;2023-02-13T10:25:16;15.91;33.00
63976;DHT22;50167;47.958;21.780;2023-02-13T10:28:05;16.09;32.95
63976;DHT22;50167;47.958;21.780;2023-02-13T10:30:38;16.04;35.35
63976;DHT22;50167;47.958;21.780;2023-02-13T10:33:10;15.80;34.98
63976;DHT22;50167;47.958;21.780;2023-02-13T10:36:01;15.26;33.60
63976;DHT22;50167;47.958;21.780;2023-02-13T10:38:31;14.56;36.49
63976;DHT22;50167;47.958;21.780;2023-02-13T10:44:00;14.29;36.69
63976;DHT22;50167;47.958;21.780;2023-02-13T10:46:45;14.34;37.63
63976;DHT22;50167;47.958;21.780;2023-02-13T11:01:08;15.44;33.74
63976;DHT22;50167;47.958;21.780;2023-02-13T11:03:43;15.27;35.01
63976;DHT22;50167;47.958;21.780;2023-02-13T11:06:14;15.02;34.91
63976;DHT22;50167;47.958;21.780;2023-02-13T11:08:46;14.82;34.87
63976;DHT22;50167;47.958;21.780;2023-02-13T11:11:34;14.58;34.63
63976;DHT22;50167;47.958;21.780;2023-02-13T11:14:14;14.65;34.88
63976;DHT22;50167;47.958;21.780;2023-02-13T11:17:03;14.34;36.80
63976;DHT22;50167;47.958;21.780;2023-02-13T11:19:51;14.09;37.28
63976;DHT22;50167;47.958;21.780;2023-02-13T11:22:36;14.45;35.20
63976;DHT22;50167;47.958;21.780;2023-02-13T11:27:53;15.12;34.30
63976;DHT22;50167;47.958;21.780;2023-02-13T11:30:35;14.85;36.21
63976;DHT22;50167;47.958;21.780;2023-02-13T11:35:46;14.88;36.56
63976;DHT22;50167;47.958;21.780;2023-02-13T11:46:20;16.37;32.61
63976;DHT22;50167;47.958;21.780;2023-02-13T11:49:03;16.22;34.05
63976;DHT22;50167;47.958;21.780;2023-02-13T11:57:32;16.02;33.47
63976;DHT22;50167;47.958;21.780;2023-02-13T12:00:25;16.20;33.64
63976;DHT22;50167;47.958;21.780;2023-02-13T12:02:42;16.23;34.16
63976;DHT22;50167;47.958;21.780;2023-02-13T12:05:23;16.23;32.18
63976;DHT22;50167;47.958;21.780;2023-02-13T12:07:50;15.71;34.35
63976;DHT22;50167;47.958;21.780;2023-02-13T12:13:11;15.96;33.05
63976;DHT22;50167;47.958;21.780;2023-02-13T12:15:35;15.91;34.55
63976;DHT22;50167;47.958;21.780;2023-02-13T12:32:25;15.73;34.68
63976;DHT22;50167;47.958;21.780;2023-02-13T12:46:49;15.57;34.74
63976;DHT22;50167;47.958;21.780;2023-02-13T12:58:04;15.60;34.72
63976;DHT22;50167;47.958;21.780;2023-02-13T13:03:51;15.16;34.53
63976;DHT22;50167;47.958;21.780;2023-02-13T13:20:47;15.50;34.63
63976;DHT22;50167;47.958;21.780;2023-02-13T13:23:16;16.30;33.12
63976;DHT22;50167;47.958;21.780;2023-02-13T13:26:44;16.63;32.39
63976;DHT22;50167;47.958;21.780;2023-02-13T13:28:53;16.90;32.31
63976;DHT22;50167;47.958;21.780;2023-02-13T13:31:23;16.99;31.60
63976;DHT22;50167;47.958;21.780;2023-02-13T13:33:59;16.97;30.51
63976;DHT22;50167;47.958;21.780;2023-02-13T13:39:42;15.96;32.92
63976;DHT22;50167;47.958;21.780;2023-02-13T13:50:39;15.74;33.05
63976;DHT22;50167;47.958;21.780;2023-02-13T13:55:59;15.10;34.50
63976;DHT22;50167;47.958;21.780;2023-02-13T13:58:41;14.26;35.37
63976;DHT22;50167;47.958;21.780;2023-02-13T14:03:50;12.62;38.07
63976;DHT22;50167;47.958;21.780;2023-02-13T14:09:01;11.59;40.35
63976;DHT22;50167;47.958;21.780;2023-02-13T14:11:40;11.13;41.23
63976;DHT22;50167;47.958;21.780;2023-02-13T14:17:05;10.38;42.95
63976;DHT22;50167;47.958;21.780;2023-02-13T14:19:37;10.08;43.10
63976;DHT22;50167;47.958;21.780;2023-02-13T14:22:34;9.79;43.24
63976;DHT22;50167;47.958;21.780;2023-02-13T14:25:05;9.53;43.84
63976;DHT22;50167;47.958;21.780;2023-02-13T14:27:35;9.27;44.33
63976;DHT22;50167;47.958;21.780;2023-02-13T14:30:05;9.03;44.95
63976;DHT22;50167;47.958;21.780;2023-02-13T14:32:35;8.91;44.79
63976;DHT22;50167;47.958;21.780;2023-02-13T14:38:07;8.74;47.34
63976;DHT22;50167;47.958;21.780;2023-02-13T14:40:48;8.66;46.41
63976;DHT22;50167;47.958;21.780;2023-02-13T14:43:36;8.60;47.71
63976;DHT22;50167;47.958;21.780;2023-02-13T14:46:38;8.43;49.10
63976;DHT22;50167;47.958;21.780;2023-02-13T14:49:19;8.28;49.19
63976;DHT22;50167;47.958;21.780;2023-02-13T14:51:54;8.10;49.74
63976;DHT22;50167;47.958;21.780;2023-02-13T14:54:37;7.98;50.23
63976;DHT22;50167;47.958;21.780;2023-02-13T14:57:27;7.83;51.31
63976;DHT22;50167;47.958;21.780;2023-02-13T14:59:58;7.70;51.75
63976;DHT22;50167;47.958;21.780;2023-02-13T15:02:29;7.73;51.20
63976;DHT22;50167;47.958;21.780;2023-02-13T15:05:14;7.93;50.55
63976;DHT22;50167;47.958;21.780;2023-02-13T15:07:49;8.05;50.46
63976;DHT22;50167;47.958;21.780;2023-02-13T15:13:31;8.03;50.38
63976;DHT22;50167;47.958;21.780;2023-02-13T15:16:04;7.93;51.19
63976;DHT22;50167;47.958;21.780;2023-02-13T15:18:44;7.70;51.82
63976;DHT22;50167;47.958;21.780;2023-02-13T15:21:03;7.52;51.79
63976;DHT22;50167;47.958;21.780;2023-02-13T15:23:32;7.31;52.73
63976;DHT22;50167;47.958;21.780;2023-02-13T15:26:05;7.11;53.23
63976;DHT22;50167;47.958;21.780;2023-02-13T15:28:34;6.96;52.84
63976;DHT22;50167;47.958;21.780;2023-02-13T15:31:23;6.79;52.62
63976;DHT22;50167;47.958;21.780;2023-02-13T15:33:50;6.63;53.29
63976;DHT22;50167;47.958;21.780;2023-02-13T15:36:21;6.45;53.15
63976;DHT22;50167;47.958;21.780;2023-02-13T15:38:59;6.29;54.15
63976;DHT22;50167;47.958;21.780;2023-02-13T15:41:31;6.17;55.99
63976;DHT22;50167;47.958;21.780;2023-02-13T15:43:58;5.98;56.51
63976;DHT22;50167;47.958;21.780;2023-02-13T15:46:28;5.81;56.21
63976;DHT22;50167;47.958;21.780;2023-02-13T15:48:59;5.70;57.58
63976;DHT22;50167;47.958;21.780;2023-02-13T15:51:28;5.52;57.08
63976;DHT22;50167;47.958;21.780;2023-02-13T15:53:58;5.36;56.16
63976;DHT22;50167;47.958;21.780;2023-02-13T15:56:25;5.25;57.62
63976;DHT22;50167;47.958;21.780;2023-02-13T15:58:53;5.35;59.79
63976;DHT22;50167;47.958;21.780;2023-02-13T16:01:21;5.25;59.18
63976;DHT22;50167;47.958;21.780;2023-02-13T16:03:58;5.43;58.08
63976;DHT22;50167;47.958;21.780;2023-02-13T16:06:20;5.25;59.11
63976;DHT22;50167;47.958;21.780;2023-02-13T16:08:54;5.67;62.51
63976;DHT22;50167;47.958;21.780;2023-02-13T16:14:26;8.18;54.11
63976;DHT22;50167;47.958;21.780;2023-02-13T16:17:15;7.17;53.91
63976;DHT22;50167;47.958;21.780;2023-02-13T16:19:53;6.31;55.41
63976;DHT22;50167;47.958;21.780;2023-02-13T16:22:34;5.79;58.92
63976;DHT22;50167;47.958;21.780;2023-02-13T16:27:46;5.56;62.57
63976;DHT22;50167;47.958;21.780;2023-02-13T16:30:33;6.97;64.25
63976;DHT22;50167;47.958;21.780;2023-02-13T16:35:51;8.00;52.64
63976;DHT22;50167;47.958;21.780;2023-02-13T16:43:52;5.50;58.94
63976;DHT22;50167;47.958;21.780;2023-02-13T16:46:36;5.28;61.61
63976;DHT22;50167;47.958;21.780;2023-02-13T16:49:12;6.40;62.91
63976;DHT22;50167;47.958;21.780;2023-02-13T16:51:55;7.41;54.89
63976;DHT22;50167;47.958;21.780;2023-02-13T16:54:35;6.77;55.91
63976;DHT22;50167;47.958;21.780;2023-02-13T16:59:55;5.33;57.65
63976;DHT22;50167;47.958;21.780;2023-02-13T17:02:29;5.56;62.22
63976;DHT22;50167;47.958;21.780;2023-02-13T17:07:46;8.22;56.24
63976;DHT22;50167;47.958;21.780;2023-02-13T17:10:35;7.77;53.54
63976;DHT22;50167;47.958;21.780;2023-02-13T17:13:11;6.55;55.48
63976;DHT22;50167;47.958;21.780;2023-02-13T17:15:44;5.66;58.78
63976;DHT22;50167;47.958;21.780;2023-02-13T17:18:11;5.12;60.28
63976;DHT22;50167;47.958;21.780;2023-02-13T17:20:41;6.15;62.20
63976;DHT22;50167;47.958;21.780;2023-02-13T17:23:17;7.42;57.87
63976;DHT22;50167;47.958;21.780;2023-02-13T17:36:41;7.29;60.64
63976;DHT22;50167;47.958;21.780;2023-02-13T17:39:07;7.77;56.45
63976;DHT22;50167;47.958;21.780;2023-02-13T17:41:33;6.94;54.44
63976;DHT22;50167;47.958;21.780;2023-02-13T17:44:00;5.97;56.05
63976;DHT22;50167;47.958;21.780;2023-02-13T17:46:26;5.26;59.36
63976;DHT22;50167;47.958;21.780;2023-02-13T17:48:52;5.66;63.47
63976;DHT22;50167;47.958;21.780;2023-02-13T17:51:19;7.08;59.70
63976;DHT22;50167;47.958;21.780;2023-02-13T17:53:45;7.26;55.41
63976;DHT22;50167;47.958;21.780;2023-02-13T17:56:12;6.31;54.96
63976;DHT22;50167;47.958;21.780;2023-02-13T17:58:38;5.52;57.56
63976;DHT22;50167;47.958;21.780;2023-02-13T18:01:04;5.18;62.65
63976;DHT22;50167;47.958;21.780;2023-02-13T18:03:30;6.32;62.25
63976;DHT22;50167;47.958;21.780;2023-02-13T18:05:57;7.31;60.55
63976;DHT22;50167;47.958;21.780;2023-02-13T18:08:23;7.34;55.22
63976;DHT22;50167;47.958;21.780;2023-02-13T18:10:49;6.46;56.52
63976;DHT22;50167;47.958;21.780;2023-02-13T18:19:49;6.97;61.14
63976;DHT22;50167;47.958;21.780;2023-02-13T18:22:16;7.86;56.56
63976;DHT22;50167;47.958;21.780;2023-02-13T18:24:42;7.32;54.01
63976;DHT22;50167;47.958;21.780;2023-02-13T18:27:09;6.32;54.70
63976;DHT22;50167;47.958;21.780;2023-02-13T18:29:46;5.59;57.21
63976;DHT22;50167;47.958;21.780;2023-02-13T18:32:17;5.18;58.89
63976;DHT22;50167;47.958;21.780;2023-02-13T18:34:48;5.60;59.26
63976;DHT22;50167;47.958;21.780;2023-02-13T18:37:16;5.22;58.06
63976;DHT22;50167;47.958;21.780;2023-02-13T18:39:43;5.84;63.17
63976;DHT22;50167;47.958;21.780;2023-02-13T18:42:10;7.18;62.79
63976;DHT22;50167;47.958;21.780;2023-02-13T18:44:40;8.31;57.53
63976;DHT22;50167;47.958;21.780;2023-02-13T18:47:06;8.11;52.40
63976;DHT22;50167;47.958;21.780;2023-02-13T18:49:33;7.14;52.94
63976;DHT22;50167;47.958;21.780;2023-02-13T18:52:01;6.25;55.18
63976;DHT22;50167;47.958;21.780;2023-02-13T18:54:29;5.58;55.87
63976;DHT22;50167;47.958;21.780;2023-02-13T18:56:55;5.19;57.58
63976;DHT22;50167;47.958;21.780;2023-02-13T18:59:22;5.59;59.29
63976;DHT22;50167;47.958;21.780;2023-02-13T19:01:48;5.21;58.18
63976;DHT22;50167;47.958;21.780;2023-02-13T19:04:15;5.76;63.05
63976;DHT22;50167;47.958;21.780;2023-02-13T19:06:42;7.07;60.16
63976;DHT22;50167;47.958;21.780;2023-02-13T19:09:09;7.31;55.49
63976;DHT22;50167;47.958;21.780;2023-02-13T19:11:36;6.45;54.86
63976;DHT22;50167;47.958;21.780;2023-02-13T19:14:03;5.66;56.68
63976;DHT22;50167;47.958;21.780;2023-02-13T19:16:32;5.12;59.21
63976;DHT22;50167;47.958;21.780;2023-02-13T19:19:02;6.05;63.30
63976;DHT22;50167;47.958;21.780;2023-02-13T19:21:33;7.39;59.91
63976;DHT22;50167;47.958;21.780;2023-02-13T19:24:07;7.49;54.06